Time;durP1;ratioP1;P1;durP2;ratioP2;P2;SDS_P1;SDS_P2;PMS_P1;PMS_P2;Temp;Humidity;BMP_temperature;BMP_pressure;BME280_temperature;BME280_humidity;BME280_pressure;Samples;Min_cycle;Max_cycle;Signal;HPM_P1;HPM_P2
2023/09/03 00:00:40;;;;;;;5.10;3.07;;;17.90;99.90;;;;;;5013130;28;20529;-79
2023/09/03 00:03:06;;;;;;;5.63;3.43;;;17.30;99.90;;;;;;5011447;28;20198;-80
2023/09/03 00:05:32;;;;;;;3.93;2.80;;;17.50;99.90;;;;;;5006896;28;20438;-82
2023/09/03 00:07:57;;;;;;;8.20;2.90;;;17.30;99.90;;;;;;5003080;28;20202;-82
2023/09/03 00:10:23;;;;;;;4.90;3.70;;;17.40;99.90;;;;;;5003949;28;20437;-84
2023/09/03 00:12:49;;;;;;;7.83;2.73;;;17.40;99.90;;;;;;5002508;28;20221;-82
2023/09/03 00:15:15;;;;;;;4.70;2.90;;;17.30;99.90;;;;;;5000724;28;20438;-81
2023/09/03 00:17:43;;;;;;;6.03;3.70;;;17.30;99.90;;;;;;5002009;28;20249;-82
2023/09/03 00:20:09;;;;;;;5.00;3.20;;;17.20;99.90;;;;;;5005470;28;20624;-81
2023/09/03 00:22:34;;;;;;;6.30;3.10;;;17.20;99.90;;;;;;5000576;28;20450;-82
2023/09/03 00:25:00;;;;;;;2.80;2.50;;;17.30;99.90;;;;;;5010145;28;20426;-81
2023/09/03 00:27:26;;;;;;;5.10;4.43;;;17.20;99.90;;;;;;5002175;28;20202;-83
2023/09/03 00:29:51;;;;;;;5.20;3.50;;;17.20;99.90;;;;;;4999081;28;20728;-82
2023/09/03 00:32:17;;;;;;;9.23;4.00;;;17.20;99.90;;;;;;4999121;28;20556;-82
2023/09/03 00:34:42;;;;;;;3.80;3.07;;;17.20;99.90;;;;;;5001350;28;20801;-79
2023/09/03 00:37:08;;;;;;;4.90;2.90;;;17.30;99.90;;;;;;5004064;28;20202;-82
2023/09/03 00:39:33;;;;;;;7.77;4.10;;;17.20;99.90;;;;;;5003446;28;20187;-83
2023/09/03 00:41:59;;;;;;;4.40;3.13;;;17.20;99.90;;;;;;5002378;28;20196;-82
2023/09/03 00:44:24;;;;;;;4.03;3.63;;;17.10;99.90;;;;;;4997843;28;20248;-83
2023/09/03 00:46:50;;;;;;;4.50;3.37;;;17.00;99.90;;;;;;5007296;28;20194;-85
2023/09/03 00:49:21;;;;;;;4.03;3.10;;;16.90;99.90;;;;;;5007624;28;20202;-85
2023/09/03 00:51:48;;;;;;;7.00;2.80;;;16.90;99.90;;;;;;5002203;28;20266;-82
2023/09/03 00:54:13;;;;;;;4.40;3.23;;;16.90;99.90;;;;;;5002364;28;20497;-80
2023/09/03 00:56:41;;;;;;;4.83;3.20;;;17.00;99.90;;;;;;5001092;28;20466;-84
2023/09/03 00:59:07;;;;;;;4.90;3.23;;;17.00;99.90;;;;;;5008612;28;20591;-83
2023/09/03 01:01:33;;;;;;;4.73;2.70;;;17.10;99.90;;;;;;5001940;28;20437;-84
2023/09/03 01:03:59;;;;;;;5.17;3.37;;;17.10;99.90;;;;;;5003455;28;20465;-86
2023/09/03 01:06:27;;;;;;;5.57;3.60;;;17.20;99.90;;;;;;5028149;28;20301;-77
2023/09/03 01:08:53;;;;;;;5.03;3.53;;;17.10;99.90;;;;;;5005391;28;20187;-80
2023/09/03 01:11:47;;;;;;;4.73;2.97;;;17.10;99.90;;;;;;5004906;28;20445;-81
2023/09/03 01:14:35;;;;;;;4.83;3.80;;;17.10;99.90;;;;;;5004205;28;20206;-85
2023/09/03 01:17:29;;;;;;;7.13;3.20;;;17.00;99.90;;;;;;5001665;28;20453;-82
2023/09/03 01:20:12;;;;;;;3.70;3.10;;;16.90;99.90;;;;;;5002290;28;20465;-84
2023/09/03 01:22:49;;;;;;;5.10;3.47;;;16.90;99.90;;;;;;5000659;28;20464;-82
2023/09/03 01:25:29;;;;;;;8.80;3.13;;;16.90;99.90;;;;;;4996958;28;20432;-82
2023/09/03 01:28:29;;;;;;;4.67;3.40;;;16.90;99.90;;;;;;4996087;28;20433;-79
2023/09/03 01:31:02;;;;;;;8.30;3.30;;;16.90;99.90;;;;;;5006998;28;20504;-83
2023/09/03 01:33:30;;;;;;;5.00;3.30;;;16.90;99.90;;;;;;5004451;28;20457;-84
2023/09/03 01:35:57;;;;;;;5.63;3.57;;;16.90;99.90;;;;;;4999229;28;20438;-83
2023/09/03 01:38:23;;;;;;;5.73;3.90;;;17.00;99.90;;;;;;5000891;28;20469;-81
2023/09/03 01:40:50;;;;;;;5.23;3.00;;;17.00;99.90;;;;;;5000689;28;20434;-80
2023/09/03 01:43:15;;;;;;;4.00;2.90;;;17.00;99.90;;;;;;4997990;28;20460;-83
2023/09/03 01:45:52;;;;;;;9.73;3.30;;;17.00;99.90;;;;;;4995427;28;21067;-81
2023/09/03 01:48:27;;;;;;;5.93;3.20;;;16.90;99.90;;;;;;5014967;28;20181;-83
2023/09/03 01:51:06;;;;;;;15.67;3.87;;;16.90;99.90;;;;;;4999136;28;20450;-85
2023/09/03 01:53:44;;;;;;;6.43;3.43;;;16.90;99.90;;;;;;5005024;28;20461;-78
2023/09/03 01:56:13;;;;;;;6.90;3.70;;;16.80;99.90;;;;;;5007510;28;20433;-79
2023/09/03 01:58:41;;;;;;;6.57;3.13;;;16.80;99.90;;;;;;4999713;28;20868;-79
2023/09/03 02:01:09;;;;;;;3.20;2.90;;;16.70;99.90;;;;;;5003257;28;20441;-83
2023/09/03 02:03:36;;;;;;;7.10;3.53;;;16.70;99.90;;;;;;5000729;28;20450;-82
2023/09/03 02:06:04;;;;;;;6.57;3.33;;;16.70;99.90;;;;;;5008700;28;20461;-81
2023/09/03 02:08:30;;;;;;;8.30;3.90;;;16.70;99.90;;;;;;4999787;28;20450;-78
2023/09/03 02:10:56;;;;;;;6.50;3.77;;;16.70;99.90;;;;;;5010597;28;20474;-76
2023/09/03 02:13:21;;;;;;;6.70;3.20;;;16.70;99.90;;;;;;5014757;28;20214;-79
2023/09/03 02:15:47;;;;;;;6.00;3.60;;;16.70;99.90;;;;;;5008143;28;20190;-79
2023/09/03 02:18:12;;;;;;;11.60;3.70;;;16.70;99.90;;;;;;5008429;28;20214;-80
2023/09/03 02:20:38;;;;;;;5.40;4.40;;;16.60;99.90;;;;;;5010631;28;20181;-83
2023/09/03 02:23:03;;;;;;;5.20;3.83;;;16.60;99.90;;;;;;5002846;28;20203;-84
2023/09/03 02:25:29;;;;;;;5.50;3.40;;;16.60;99.90;;;;;;5004389;28;20754;-81
2023/09/03 02:27:54;;;;;;;7.83;3.50;;;16.50;99.90;;;;;;5004258;28;20202;-82
2023/09/03 02:30:20;;;;;;;10.03;3.30;;;16.40;99.90;;;;;;5000510;28;20191;-79
2023/09/03 02:32:47;;;;;;;5.50;3.40;;;16.30;99.90;;;;;;5007766;28;20222;-83
2023/09/03 02:35:13;;;;;;;6.87;4.27;;;16.20;99.90;;;;;;5000447;28;20450;-82
2023/09/03 02:37:39;;;;;;;3.70;3.40;;;16.20;99.90;;;;;;5003151;28;21269;-78
2023/09/03 02:40:05;;;;;;;4.30;3.57;;;16.20;99.90;;;;;;5006865;28;20457;-81
2023/09/03 02:42:30;;;;;;;6.27;3.90;;;16.20;99.90;;;;;;5002000;28;20206;-82
2023/09/03 02:44:56;;;;;;;7.40;4.27;;;16.50;99.90;;;;;;5004668;28;20425;-83
2023/09/03 02:47:21;;;;;;;7.83;3.80;;;16.10;99.90;;;;;;5005408;28;20722;-79
2023/09/03 02:49:47;;;;;;;4.37;3.73;;;16.70;99.90;;;;;;5006146;28;20225;-79
2023/09/03 02:52:12;;;;;;;7.23;4.50;;;16.20;99.90;;;;;;5002474;28;20457;-84
2023/09/03 02:54:38;;;;;;;7.10;4.40;;;16.00;99.90;;;;;;5003866;28;20178;-80
2023/09/03 02:57:03;;;;;;;4.63;4.10;;;16.00;99.90;;;;;;5002699;28;20462;-83
2023/09/03 02:59:29;;;;;;;9.87;4.00;;;16.00;99.90;;;;;;4997538;28;20216;-82
2023/09/03 03:01:55;;;;;;;5.93;4.33;;;;;;;;;;5009051;28;20238;-83
2023/09/03 03:04:21;;;;;;;5.47;3.90;;;15.90;99.90;;;;;;4999074;28;20187;-83
2023/09/03 03:06:47;;;;;;;12.33;4.10;;;17.20;99.90;;;;;;5003229;28;20458;-84
2023/09/03 03:09:12;;;;;;;10.63;4.47;;;16.00;99.90;;;;;;5001287;28;20877;-83
2023/09/03 03:11:38;;;;;;;7.40;3.83;;;16.00;99.90;;;;;;5001177;28;20190;-83
2023/09/03 03:14:04;;;;;;;5.80;4.00;;;16.00;99.90;;;;;;5009230;28;20217;-80
2023/09/03 03:16:29;;;;;;;4.37;3.60;;;16.00;99.90;;;;;;5015781;28;20473;-82
2023/09/03 03:18:55;;;;;;;6.33;3.80;;;16.10;99.90;;;;;;5008196;28;20215;-84
2023/09/03 03:21:22;;;;;;;8.40;3.00;;;16.00;99.90;;;;;;5003988;28;20178;-82
2023/09/03 03:23:51;;;;;;;9.30;4.07;;;16.10;99.90;;;;;;5005830;28;20575;-82
2023/09/03 03:26:18;;;;;;;6.80;4.50;;;16.10;99.90;;;;;;5005737;28;20445;-83
2023/09/03 03:28:44;;;;;;;8.20;6.33;;;16.00;99.90;;;;;;5004335;28;20996;-80
2023/09/03 03:31:18;;;;;;;8.80;4.87;;;16.00;99.90;;;;;;5004083;28;20442;-84
2023/09/03 03:33:45;;;;;;;9.67;4.07;;;16.40;99.90;;;;;;5002026;28;20523;-85
2023/09/03 03:36:16;;;;;;;16.23;3.50;;;16.00;99.90;;;;;;4999809;28;20475;-83
2023/09/03 03:38:42;;;;;;;6.77;3.63;;;15.90;99.90;;;;;;5009070;28;20477;-81
2023/09/03 03:41:10;;;;;;;8.33;3.90;;;15.80;99.90;;;;;;5002219;28;20441;-85
2023/09/03 03:43:36;;;;;;;8.40;3.90;;;15.70;99.90;;;;;;4998739;28;20454;-85
2023/09/03 03:46:03;;;;;;;4.10;3.40;;;;;;;;;;4999705;28;20471;-82
2023/09/03 03:48:28;;;;;;;8.33;4.00;;;15.70;99.90;;;;;;5006870;28;20430;-79
2023/09/03 03:50:54;;;;;;;4.60;3.87;;;15.80;99.90;;;;;;5003928;28;20437;-85
2023/09/03 03:53:20;;;;;;;5.30;3.43;;;15.70;99.90;;;;;;5000700;28;20207;-83
2023/09/03 03:55:45;;;;;;;4.80;3.67;;;16.30;99.90;;;;;;5000269;28;20472;-80
2023/09/03 03:58:11;;;;;;;3.63;2.90;;;15.70;99.90;;;;;;5004233;28;20301;-82
2023/09/03 04:00:36;;;;;;;9.73;3.70;;;15.80;99.90;;;;;;5005723;28;20198;-84
2023/09/03 04:03:02;;;;;;;4.97;3.23;;;15.70;99.90;;;;;;5006074;28;20205;-81
2023/09/03 04:05:28;;;;;;;5.43;3.67;;;15.60;99.90;;;;;;5000138;28;20191;-83
2023/09/03 04:07:54;;;;;;;6.70;3.20;;;15.60;99.90;;;;;;5003267;28;20179;-84
2023/09/03 04:10:20;;;;;;;5.30;3.47;;;15.70;99.90;;;;;;5004050;28;20432;-79
2023/09/03 04:12:45;;;;;;;5.13;3.03;;;15.70;99.90;;;;;;5006503;28;20932;-83
2023/09/03 04:15:11;;;;;;;3.97;3.47;;;15.80;99.90;;;;;;4998101;28;20190;-82
2023/09/03 04:17:37;;;;;;;4.60;3.40;;;;;;;;;;4997746;28;20321;-82
2023/09/03 04:20:02;;;;;;;4.23;3.00;;;15.90;99.90;;;;;;5000303;28;20726;-80
2023/09/03 04:22:28;;;;;;;7.60;3.23;;;16.00;99.90;;;;;;5014616;28;20466;-81
2023/09/03 04:24:54;;;;;;;10.33;3.30;;;16.00;99.90;;;;;;5016193;28;20182;-82
2023/09/03 04:27:19;;;;;;;5.00;3.37;;;16.00;99.90;;;;;;5008998;28;20194;-84
2023/09/03 04:29:45;;;;;;;4.43;3.00;;;16.20;99.90;;;;;;5007150;28;20197;-83
2023/09/03 04:32:10;;;;;;;5.30;3.27;;;16.20;99.90;;;;;;5004614;28;20190;-82
2023/09/03 04:34:36;;;;;;;6.40;3.40;;;16.20;99.90;;;;;;5004198;28;20194;-83
2023/09/03 04:37:02;;;;;;;5.20;4.00;;;16.20;99.90;;;;;;5001529;28;20460;-84
2023/09/03 04:39:27;;;;;;;4.43;3.17;;;16.20;99.90;;;;;;5000481;28;20209;-81
2023/09/03 04:41:53;;;;;;;4.70;3.30;;;16.20;99.90;;;;;;5002801;28;20179;-80
2023/09/03 04:44:20;;;;;;;4.80;2.90;;;16.20;99.90;;;;;;4999703;28;20298;-81
2023/09/03 04:46:45;;;;;;;4.23;3.10;;;16.30;99.90;;;;;;4996914;28;20185;-82
2023/09/03 04:49:11;;;;;;;5.03;3.63;;;16.30;99.90;;;;;;4995851;28;20453;-78
2023/09/03 04:51:36;;;;;;;4.37;3.40;;;16.30;99.90;;;;;;4998991;28;20179;-82
2023/09/03 04:54:02;;;;;;;5.70;2.80;;;16.30;99.90;;;;;;4999831;28;20222;-82
2023/09/03 04:56:28;;;;;;;5.23;3.53;;;;;;;;;;5008631;28;21034;-84
2023/09/03 04:58:53;;;;;;;5.67;3.43;;;16.40;99.90;;;;;;5005237;28;20211;-83
2023/09/03 05:01:19;;;;;;;7.50;3.07;;;16.40;99.90;;;;;;4992201;28;20978;-82
2023/09/03 05:03:45;;;;;;;4.47;3.77;;;16.50;99.90;;;;;;4998644;28;20279;-83
2023/09/03 05:06:15;;;;;;;7.77;3.53;;;16.50;99.90;;;;;;4998768;28;20179;-82
2023/09/03 05:08:41;;;;;;;5.70;3.03;;;16.60;99.90;;;;;;4994388;28;20183;-80
2023/09/03 05:11:12;;;;;;;5.90;3.13;;;16.70;99.90;;;;;;5000996;28;20445;-84
2023/09/03 05:13:38;;;;;;;5.60;3.77;;;16.70;99.90;;;;;;4999953;28;20449;-83
2023/09/03 05:16:04;;;;;;;4.17;3.50;;;16.80;99.90;;;;;;5005003;28;20962;-82
2023/09/03 05:18:30;;;;;;;21.10;6.43;;;16.60;99.90;;;;;;5002896;28;20462;-83
2023/09/03 05:20:56;;;;;;;6.40;5.20;;;16.40;99.90;;;;;;4999519;28;20176;-75
2023/09/03 05:23:22;;;;;;;9.83;4.77;;;16.50;99.90;;;;;;4997973;28;20515;-83
2023/09/03 05:25:47;;;;;;;5.53;3.87;;;16.60;99.90;;;;;;4999461;28;20194;-84
2023/09/03 05:28:13;;;;;;;10.20;4.17;;;16.50;99.90;;;;;;5013026;28;20194;-77
2023/09/03 05:30:39;;;;;;;5.50;3.60;;;16.40;99.90;;;;;;5004588;28;20187;-82
2023/09/03 05:33:04;;;;;;;12.23;5.27;;;16.50;99.90;;;;;;5002576;28;20195;-85
2023/09/03 05:35:30;;;;;;;5.73;4.93;;;16.60;99.90;;;;;;5004410;28;20183;-81
2023/09/03 05:37:55;;;;;;;9.80;3.80;;;16.70;99.90;;;;;;5002648;28;20211;-81
2023/09/03 05:40:21;;;;;;;7.90;4.57;;;16.80;99.90;;;;;;5007186;28;20183;-79
2023/09/03 05:42:48;;;;;;;6.17;4.40;;;17.00;99.90;;;;;;5005372;28;20222;-80
2023/09/03 05:45:14;;;;;;;5.23;3.63;;;;;;;;;;5001809;28;20746;-78
2023/09/03 05:47:39;;;;;;;4.80;3.60;;;17.50;99.90;;;;;;4998011;28;20513;-83
2023/09/03 05:50:06;;;;;;;3.67;3.13;;;17.70;99.90;;;;;;5000167;28;20429;-82
2023/09/03 05:52:31;;;;;;;7.80;2.90;;;17.80;99.90;;;;;;4992191;28;20908;-78
2023/09/03 05:54:57;;;;;;;3.83;3.30;;;18.00;99.90;;;;;;5005173;28;20499;-81
2023/09/03 05:57:23;;;;;;;3.77;2.90;;;18.40;99.90;;;;;;4996172;28;20253;-81
2023/09/03 05:59:50;;;;;;;4.07;2.97;;;18.80;99.90;;;;;;5002092;28;20166;-81
2023/09/03 06:02:16;;;;;;;3.77;3.07;;;19.40;99.90;;;;;;4998419;28;20201;-85
2023/09/03 06:04:42;;;;;;;3.57;2.97;;;20.10;99.90;;;;;;5008415;28;20437;-83
2023/09/03 06:07:09;;;;;;;3.23;2.17;;;20.50;99.90;;;;;;5003925;28;20882;-85
2023/09/03 06:09:35;;;;;;;3.97;2.70;;;21.10;99.90;;;;;;5000992;28;20203;-85
2023/09/03 06:12:01;;;;;;;2.97;2.73;;;;;;;;;;4997924;28;20457;-82
2023/09/03 06:14:27;;;;;;;4.10;3.10;;;21.60;99.90;;;;;;4996766;28;20537;-80
2023/09/03 06:16:54;;;;;;;6.33;3.07;;;21.20;99.90;;;;;;4998757;28;20437;-76
2023/09/03 06:19:20;;;;;;;3.90;3.50;;;20.90;99.90;;;;;;4991625;28;20237;-79
2023/09/03 06:21:46;;;;;;;5.40;3.33;;;;;;;;;;4995201;28;21215;-84
2023/09/03 06:24:12;;;;;;;4.40;3.63;;;20.70;99.90;;;;;;4999038;28;20497;-85
2023/09/03 06:26:38;;;;;;;6.80;3.37;;;21.00;99.90;;;;;;4995975;28;20419;-82
2023/09/03 06:29:03;;;;;;;3.87;3.40;;;21.20;99.90;;;;;;4994877;28;20651;-82
2023/09/03 06:31:29;;;;;;;5.60;3.73;;;21.20;99.90;;;;;;4999706;28;20195;-83
2023/09/03 06:33:54;;;;;;;5.73;3.90;;;21.50;99.90;;;;;;4992243;28;20210;-80
2023/09/03 06:36:20;;;;;;;10.73;3.97;;;22.10;99.90;;;;;;5007216;28;20171;-81
2023/09/03 06:38:46;;;;;;;6.00;3.60;;;22.50;99.90;;;;;;5005465;28;20292;-82
2023/09/03 06:41:12;;;;;;;6.00;4.20;;;22.30;99.90;;;;;;5000892;28;20697;-84
2023/09/03 06:43:38;;;;;;;5.27;3.83;;;22.20;99.90;;;;;;5003319;28;20202;-81
2023/09/03 06:46:03;;;;;;;4.20;3.30;;;22.50;99.90;;;;;;4993426;28;20234;-83
2023/09/03 06:48:29;;;;;;;10.07;3.87;;;;;;;;;;5001458;28;20430;-78
2023/09/03 06:50:56;;;;;;;5.83;4.40;;;23.10;99.90;;;;;;4995912;28;20183;-82
2023/09/03 06:53:21;;;;;;;4.60;3.90;;;23.00;99.90;;;;;;5000483;28;20515;-80
2023/09/03 06:55:47;;;;;;;4.90;4.40;;;22.70;99.90;;;;;;5001785;28;20815;-85
2023/09/03 06:58:12;;;;;;;7.33;3.27;;;22.40;99.90;;;;;;5002250;28;20203;-83
2023/09/03 07:00:38;;;;;;;3.60;3.30;;;22.30;99.90;;;;;;5004106;28;20189;-83
2023/09/03 07:03:04;;;;;;;4.70;3.90;;;22.30;99.90;;;;;;5002132;28;20206;-83
2023/09/03 07:05:29;;;;;;;8.73;4.30;;;22.40;99.90;;;;;;5002048;28;20180;-82
2023/09/03 07:07:55;;;;;;;5.50;4.07;;;22.60;99.90;;;;;;5002549;28;20652;-83
2023/09/03 07:10:20;;;;;;;5.10;3.37;;;22.80;99.90;;;;;;5001728;28;21000;-80
2023/09/03 07:12:46;;;;;;;8.00;3.73;;;22.80;99.90;;;;;;5004640;28;20277;-82
2023/09/03 07:15:11;;;;;;;6.50;4.20;;;22.70;99.90;;;;;;5006075;28;20206;-81
2023/09/03 07:17:37;;;;;;;8.17;3.77;;;22.90;99.90;;;;;;5000572;28;20740;-82
2023/09/03 07:20:03;;;;;;;5.10;4.30;;;23.40;99.90;;;;;;5007901;28;20189;-82
2023/09/03 07:22:28;;;;;;;4.20;3.33;;;24.20;99.90;;;;;;5007182;28;20205;-82
2023/09/03 07:24:54;;;;;;;5.03;3.70;;;24.40;99.90;;;;;;5003497;28;20192;-79
2023/09/03 07:27:20;;;;;;;7.40;4.00;;;24.20;99.90;;;;;;5001412;28;20185;-80
2023/09/03 07:29:45;;;;;;;4.20;3.80;;;24.30;99.90;;;;;;5009590;28;20173;-82
2023/09/03 07:32:11;;;;;;;8.40;4.10;;;24.60;99.90;;;;;;5004907;28;20189;-81
2023/09/03 07:34:36;;;;;;;4.50;4.10;;;24.60;99.90;;;;;;5002662;28;20204;-83
2023/09/03 07:37:02;;;;;;;4.03;3.63;;;24.30;99.90;;;;;;5002176;28;20249;-80
2023/09/03 07:39:28;;;;;;;4.10;3.70;;;24.30;99.90;;;;;;5000643;28;20274;-84
2023/09/03 07:41:56;;;;;;;4.80;3.33;;;25.50;99.90;;;;;;5001450;28;20718;-81
2023/09/03 07:44:25;;;;;;;9.90;4.80;;;27.30;99.90;;;;;;5012770;28;20257;-81
2023/09/03 07:46:50;;;;;;;5.07;3.80;;;28.70;99.90;;;;;;5008186;28;20433;-80
2023/09/03 07:49:16;;;;;;;9.73;3.60;;;29.90;99.90;;;;;;5006754;28;20456;-82
2023/09/03 07:51:41;;;;;;;4.60;3.60;;;30.70;99.90;;;;;;5006440;28;20192;-82
2023/09/03 07:54:08;;;;;;;4.70;3.20;;;;;;;;;;5006714;28;20831;-82
2023/09/03 07:56:34;;;;;;;7.80;3.53;;;32.10;99.90;;;;;;5008864;28;20208;-82
2023/09/03 07:58:59;;;;;;;4.27;3.30;;;32.10;99.90;;;;;;5003561;28;20876;-81
2023/09/03 08:01:25;;;;;;;4.90;3.97;;;;;;;;;;5005797;28;20183;-85
2023/09/03 08:03:51;;;;;;;5.60;3.50;;;31.20;99.90;;;;;;5002151;28;20617;-82
2023/09/03 08:06:16;;;;;;;4.00;3.60;;;30.40;99.90;;;;;;4999712;28;20898;-81
2023/09/03 08:08:43;;;;;;;5.67;3.90;;;29.70;99.90;;;;;;5002158;28;20198;-79
2023/09/03 08:11:08;;;;;;;4.53;3.53;;;29.20;99.90;;;;;;4997635;28;20182;-83
2023/09/03 08:13:34;;;;;;;6.83;4.60;;;30.60;99.90;;;;;;4999867;28;20511;-79
2023/09/03 08:15:59;;;;;;;7.03;3.37;;;30.40;99.90;;;;;;4998602;28;20617;-84
2023/09/03 08:18:25;;;;;;;4.00;2.90;;;30.50;99.90;;;;;;5005963;28;20472;-78
2023/09/03 08:20:51;;;;;;;4.80;3.90;;;31.00;99.90;;;;;;5004189;28;20248;-80
2023/09/03 08:23:18;;;;;;;5.50;3.33;;;31.20;99.90;;;;;;5001245;28;20228;-82
2023/09/03 08:25:44;;;;;;;12.00;4.43;;;;;;;;;;5001122;28;20263;-83
2023/09/03 08:28:10;;;;;;;7.37;3.27;;;33.80;99.00;;;;;;5009057;28;20599;-78
2023/09/03 08:30:37;;;;;;;6.87;3.77;;;34.90;98.40;;;;;;5002851;28;20453;-82
2023/09/03 08:33:02;;;;;;;5.00;3.50;;;33.80;97.20;;;;;;5000924;28;20559;-83
2023/09/03 08:35:29;;;;;;;3.73;3.20;;;33.00;98.20;;;;;;4998655;28;20527;-85
2023/09/03 08:37:54;;;;;;;4.60;4.20;;;33.30;99.10;;;;;;5009121;28;20463;-81
2023/09/03 08:40:20;;;;;;;5.33;4.67;;;;;;;;;;5002416;28;20883;-82
2023/09/03 08:42:47;;;;;;;5.73;4.80;;;;;;;;;;5006794;28;20235;-82
2023/09/03 08:45:15;;;;;;;5.07;4.67;;;34.90;93.80;;;;;;5000301;28;20458;-82
2023/09/03 08:47:44;;;;;;;5.70;4.90;;;34.60;94.20;;;;;;4999788;28;20450;-82
2023/09/03 08:50:10;;;;;;;5.43;4.33;;;34.80;92.50;;;;;;5001978;28;20437;-77
2023/09/03 08:52:38;;;;;;;9.10;4.50;;;34.30;93.70;;;;;;5011867;28;20584;-85
2023/09/03 08:55:04;;;;;;;4.43;4.03;;;33.50;92.70;;;;;;5014406;28;20549;-81
2023/09/03 08:57:34;;;;;;;3.80;3.50;;;;;;;;;;5011832;28;20440;-83
2023/09/03 09:00:06;;;;;;;4.47;3.70;;;33.00;95.90;;;;;;5007542;28;20484;-81
2023/09/03 09:02:35;;;;;;;4.57;4.17;;;33.90;94.10;;;;;;4999310;28;20506;-80
2023/09/03 09:05:02;;;;;;;5.43;4.00;;;33.50;93.00;;;;;;5003326;28;21057;-82
2023/09/03 09:07:28;;;;;;;4.60;3.90;;;32.30;94.50;;;;;;5008539;28;20554;-84
2023/09/03 09:09:58;;;;;;;5.10;3.70;;;31.90;95.40;;;;;;5005165;28;22378;-80
2023/09/03 09:12:51;;;;;;;7.50;3.50;;;31.60;95.20;;;;;;5003985;28;20211;-82
2023/09/03 09:15:17;;;;;;;4.43;3.80;;;31.90;97.40;;;;;;5003784;28;20482;-83
2023/09/03 09:17:43;;;;;;;6.83;3.83;;;32.90;94.30;;;;;;4999724;28;20493;-81
2023/09/03 09:20:10;;;;;;;7.03;4.20;;;32.30;93.20;;;;;;4996893;28;20196;-80
2023/09/03 09:22:43;;;;;;;4.50;3.17;;;31.70;94.10;;;;;;5006181;28;20466;-80
2023/09/03 09:25:16;;;;;;;4.27;3.37;;;32.50;95.20;;;;;;5006606;28;20441;-82
2023/09/03 09:27:42;;;;;;;4.13;3.10;;;34.30;94.00;;;;;;4996070;28;20434;-83
2023/09/03 09:30:16;;;;;;;3.50;3.23;;;36.00;89.30;;;;;;4999246;28;20452;-82
2023/09/03 09:32:43;;;;;;;4.10;3.80;;;35.70;81.50;;;;;;4995642;28;20588;-81
2023/09/03 09:35:09;;;;;;;5.50;4.30;;;36.10;81.30;;;;;;5013074;28;20526;-82
2023/09/03 09:37:40;;;;;;;4.83;4.43;;;36.50;79.00;;;;;;5004869;28;20985;-80
2023/09/03 09:40:12;;;;;;;7.40;4.73;;;36.60;76.40;;;;;;4997769;28;20448;-83
2023/09/03 09:43:03;;;;;;;5.40;5.00;;;36.80;73.30;;;;;;5010903;28;20440;-81
2023/09/03 09:45:30;;;;;;;5.60;5.30;;;36.90;74.30;;;;;;5019611;28;20769;-78
2023/09/03 09:48:07;;;;;;;6.10;5.80;;;37.20;72.30;;;;;;4999937;28;20467;-83
2023/09/03 09:50:42;;;;;;;5.80;5.40;;;35.40;74.40;;;;;;4994324;28;20447;-83
2023/09/03 09:53:25;;;;;;;5.10;4.70;;;32.90;84.10;;;;;;4998202;28;20457;-79
2023/09/03 09:56:00;;;;;;;4.57;4.27;;;32.90;87.20;;;;;;5006320;28;20449;-80
2023/09/03 09:58:37;;;;;;;5.03;4.23;;;33.00;81.70;;;;;;5013703;28;20463;-81
2023/09/03 10:01:03;;;;;;;3.87;3.57;;;33.90;83.80;;;;;;5000060;28;20432;-79
2023/09/03 10:03:41;;;;;;;4.60;4.30;;;33.90;82.20;;;;;;5005198;28;20500;-82
2023/09/03 10:06:08;;;;;;;4.90;4.50;;;33.90;82.30;;;;;;5002063;28;20496;-84
2023/09/03 10:08:35;;;;;;;4.67;4.33;;;35.00;80.00;;;;;;5004900;28;20457;-82
2023/09/03 10:11:00;;;;;;;4.97;4.33;;;35.60;77.00;;;;;;5002834;28;20871;-81
2023/09/03 10:13:26;;;;;;;6.60;4.77;;;34.90;75.00;;;;;;5002810;28;20449;-81
2023/09/03 10:15:52;;;;;;;3.47;3.27;;;33.50;77.90;;;;;;4997430;28;20178;-81
2023/09/03 10:18:19;;;;;;;3.70;3.40;;;32.30;80.90;;;;;;5001018;28;20203;-80
2023/09/03 10:20:46;;;;;;;2.93;2.73;;;31.60;82.50;;;;;;4994970;28;20438;-81
2023/09/03 10:23:16;;;;;;;3.67;2.70;;;30.80;87.80;;;;;;5004316;28;20455;-83
2023/09/03 10:25:42;;;;;;;3.23;2.77;;;29.90;91.70;;;;;;5003779;28;20525;-81
2023/09/03 10:28:08;;;;;;;4.80;2.57;;;29.90;94.50;;;;;;5005908;28;20525;-82
2023/09/03 10:30:40;;;;;;;5.13;2.00;;;28.60;96.60;;;;;;5002843;28;20440;-82
2023/09/03 10:33:10;;;;;;;2.20;1.57;;;27.80;97.80;;;;;;5000245;28;21416;-82
2023/09/03 10:35:35;;;;;;;3.43;2.37;;;28.10;98.90;;;;;;5000821;28;20511;-82
2023/09/03 10:38:01;;;;;;;2.67;1.90;;;28.10;99.90;;;;;;4969025;28;1029943;-79
2023/09/03 10:40:30;;;;;;;2.17;1.97;;;28.00;99.90;;;;;;5007652;28;20240;-78
2023/09/03 10:43:18;;;;;;;1.53;1.33;;;28.20;99.90;;;;;;5001486;28;20222;-81
2023/09/03 10:46:04;;;;;;;4.40;1.87;;;28.60;99.90;;;;;;5002153;28;20474;-80
2023/09/03 10:48:30;;;;;;;3.73;2.10;;;28.90;99.90;;;;;;5000455;28;20446;-81
2023/09/03 10:50:55;;;;;;;2.30;2.10;;;29.40;98.60;;;;;;5001328;28;20787;-81
2023/09/03 10:53:41;;;;;;;7.47;2.17;;;29.50;97.60;;;;;;4995955;28;20202;-80
2023/09/03 10:56:19;;;;;;;1.90;1.70;;;29.30;95.80;;;;;;5001495;28;20189;-83
2023/09/03 10:59:01;;;;;;;2.40;1.80;;;28.80;97.50;;;;;;5009599;28;20547;-82
2023/09/03 11:01:31;;;;;;;3.13;1.80;;;28.80;99.80;;;;;;5001058;28;21168;-84
2023/09/03 11:04:01;;;;;;;1.70;1.27;;;28.40;98.80;;;;;;4999250;28;20468;-79
2023/09/03 11:06:34;;;;;;;1.40;1.30;;;28.50;99.70;;;;;;4999623;28;21453;-83
2023/09/03 11:09:08;;;;;;;1.70;1.50;;;28.80;99.00;;;;;;5005014;28;20456;-80
2023/09/03 11:11:35;;;;;;;2.50;1.47;;;28.80;99.50;;;;;;5013558;28;20432;-83
2023/09/03 11:14:02;;;;;;;2.13;1.50;;;29.10;98.80;;;;;;5012535;28;20538;-84
2023/09/03 11:16:31;;;;;;;1.60;1.50;;;29.20;98.00;;;;;;5009768;28;20465;-86
2023/09/03 11:18:57;;;;;;;3.60;1.40;;;28.90;97.00;;;;;;5008642;28;20507;-79
2023/09/03 11:21:24;;;;;;;2.20;1.30;;;28.90;98.20;;;;;;5006798;28;20502;-81
2023/09/03 11:24:20;;;;;;;4.40;1.20;;;28.70;97.50;;;;;;5003611;28;20461;-81
2023/09/03 11:27:02;;;;;;;1.73;1.57;;;28.70;97.70;;;;;;5005485;28;20447;-83
2023/09/03 11:29:28;;;;;;;1.83;1.67;;;28.60;98.40;;;;;;5004240;28;20534;-82
2023/09/03 11:31:54;;;;;;;1.53;1.30;;;28.80;99.40;;;;;;5003348;28;20469;-81
2023/09/03 11:34:22;;;;;;;4.10;2.10;;;29.10;99.00;;;;;;4999285;28;20797;-81
2023/09/03 11:36:48;;;;;;;5.90;1.47;;;29.00;99.60;;;;;;5001558;28;20191;-80
2023/09/03 11:39:15;;;;;;;3.53;1.80;;;29.10;97.70;;;;;;5000544;28;20853;-83
2023/09/03 11:41:45;;;;;;;1.67;1.47;;;28.90;98.30;;;;;;5003682;28;20430;-79
2023/09/03 11:44:20;;;;;;;3.07;1.50;;;28.50;97.90;;;;;;5000384;28;20464;-82
2023/09/03 11:46:57;;;;;;;2.23;1.63;;;28.70;98.10;;;;;;4999351;28;20445;-81
2023/09/03 11:49:22;;;;;;;1.70;1.60;;;28.60;97.80;;;;;;4999040;28;20428;-81
2023/09/03 11:51:48;;;;;;;2.20;1.30;;;28.40;99.90;;;;;;5001782;28;20435;-82
2023/09/03 11:54:26;;;;;;;3.10;2.40;;;28.50;99.70;;;;;;4996639;28;20718;-78
2023/09/03 11:56:58;;;;;;;2.40;2.00;;;28.60;99.00;;;;;;5002153;28;20189;-77
2023/09/03 11:59:24;;;;;;;2.20;1.50;;;28.20;98.80;;;;;;4999793;28;20498;-80
2023/09/03 12:01:51;;;;;;;2.77;1.80;;;27.60;98.50;;;;;;4992734;28;20442;-82
2023/09/03 12:04:17;;;;;;;2.10;1.57;;;27.50;99.90;;;;;;5005947;28;20251;-81
2023/09/03 12:06:42;;;;;;;3.57;1.90;;;27.80;99.20;;;;;;4999627;28;20422;-80
2023/09/03 12:09:08;;;;;;;2.60;1.40;;;27.90;99.90;;;;;;5000736;28;20207;-80
2023/09/03 12:11:34;;;;;;;2.00;1.40;;;28.20;99.90;;;;;;4999744;28;20284;-80
2023/09/03 12:13:59;;;;;;;2.03;1.43;;;28.40;98.80;;;;;;5002826;28;20510;-83
2023/09/03 12:16:25;;;;;;;2.97;1.50;;;28.60;98.20;;;;;;5003288;28;20406;-79
2023/09/03 12:18:59;;;;;;;2.63;1.60;;;28.80;99.90;;;;;;5020333;28;20223;-79
2023/09/03 12:21:32;;;;;;;2.43;1.90;;;29.20;97.20;;;;;;5008747;28;20252;-82
2023/09/03 12:23:58;;;;;;;3.47;2.00;;;29.40;97.30;;;;;;5009201;28;20449;-79
2023/09/03 12:26:23;;;;;;;2.13;1.60;;;29.20;95.30;;;;;;5005162;28;20434;-79
2023/09/03 12:28:49;;;;;;;2.93;1.50;;;29.30;95.90;;;;;;5010617;28;20190;-83
2023/09/03 12:31:15;;;;;;;2.90;1.87;;;29.30;94.80;;;;;;5001991;28;20187;-79
2023/09/03 12:33:48;;;;;;;4.67;2.00;;;29.40;97.30;;;;;;5007292;28;20285;-82
2023/09/03 12:36:15;;;;;;;1.67;1.40;;;29.60;95.60;;;;;;5004448;28;20182;-83
2023/09/03 12:39:06;;;;;;;3.50;2.20;;;29.80;94.50;;;;;;5002023;28;20495;-86
2023/09/03 12:41:37;;;;;;;2.33;1.67;;;29.80;94.40;;;;;;4997016;28;20422;-83
2023/09/03 12:44:08;;;;;;;3.13;1.40;;;29.70;95.30;;;;;;5005044;28;21256;-83
2023/09/03 12:46:37;;;;;;;4.60;2.10;;;29.70;93.50;;;;;;4995926;28;20430;-81
2023/09/03 12:49:03;;;;;;;1.47;1.37;;;29.60;96.10;;;;;;4997260;28;20940;-83
2023/09/03 12:51:29;;;;;;;2.20;1.40;;;29.60;96.10;;;;;;4995177;28;20438;-81
2023/09/03 12:53:54;;;;;;;1.90;1.77;;;30.10;94.50;;;;;;4997722;28;20511;-83